NCAR-RAP Real-Time Weather Data

Output produced by METARs form (17 November 2017  17:47 UTC)
found at http://weather.rap.ucar.edu/surface/
 
Conditions at: KGIF observed 17 November 2017  16:53 UTC
Temperature: 23.3°C (74°F)
Dewpoint: 13.3°C (56°F) [RH = 53%]
Pressure (altimeter): 30.10 inches Hg (1019.4 mb)
[Sea-level pressure: 1019.1 mb]
Winds: variable direction winds at 6 MPH (5 knots; 2.6 m/s)
Visibility: 10 or more miles (16+ km)
Ceiling: at least 12,000 feet AGL
Clouds: sky clear below 12,000 feet AGL
Present Weather: automated observation with no human augmentation;
there may or may not be significant weather present at this time
KGIF 171653Z AUTO VRB05KT 10SM CLR 23/13 A3010 RMK AO2 SLP191 T02330133

Conditions at: KGIF observed 17 November 2017  15:53 UTC
Temperature: 22.2°C (72°F)
Dewpoint: 13.9°C (57°F) [RH = 59%]
Pressure (altimeter): 30.12 inches Hg (1020.1 mb)
[Sea-level pressure: 1019.6 mb]
Winds: from the ENE (60 degrees) at 8 MPH (7 knots; 3.6 m/s)
Visibility: 10 or more miles (16+ km)
Ceiling: at least 12,000 feet AGL
Clouds: sky clear below 12,000 feet AGL
Present Weather: automated observation with no human augmentation;
there may or may not be significant weather present at this time
KGIF 171553Z AUTO 06007KT 10SM CLR 22/14 A3012 RMK AO2 SLP196 T02220139

Conditions at: KGIF observed 17 November 2017  14:53 UTC
Temperature: 21.1°C (70°F)
Dewpoint: 13.3°C (56°F) [RH = 61%]
Pressure (altimeter): 30.12 inches Hg (1020.1 mb)
[Sea-level pressure: 1019.8 mb]
Winds: from the NNE (30 degrees) at 9 MPH (8 knots; 4.2 m/s)
Visibility: 10 or more miles (16+ km)
Ceiling: at least 12,000 feet AGL
Clouds: sky clear below 12,000 feet AGL
Present Weather: automated observation with no human augmentation;
there may or may not be significant weather present at this time
KGIF 171453Z AUTO 03008KT 10SM CLR 21/13 A3012 RMK AO2 SLP198 T02110133 51007

Conditions at: KGIF observed 17 November 2017  13:53 UTC
Temperature: 18.9°C (66°F)
Dewpoint: 12.8°C (55°F) [RH = 68%]
Pressure (altimeter): 30.12 inches Hg (1020.1 mb)
[Sea-level pressure: 1019.6 mb]
Winds: from the NE (40 degrees) at 10 MPH (9 knots; 4.7 m/s)
Visibility: 10 or more miles (16+ km)
Ceiling: at least 12,000 feet AGL
Clouds: sky clear below 12,000 feet AGL
Present Weather: automated observation with no human augmentation;
there may or may not be significant weather present at this time
KGIF 171353Z AUTO 04009KT 10SM CLR 19/13 A3012 RMK AO2 SLP196 T01890128

Conditions at: KGIF observed 17 November 2017  12:53 UTC
Temperature: 16.1°C (61°F)
Dewpoint: 11.7°C (53°F) [RH = 75%]
Pressure (altimeter): 30.12 inches Hg (1020.1 mb)
[Sea-level pressure: 1019.6 mb]
Winds: from the NNE (30 degrees) at 9 MPH (8 knots; 4.2 m/s)
Visibility: 10 or more miles (16+ km)
Ceiling: at least 12,000 feet AGL
Clouds: sky clear below 12,000 feet AGL
Present Weather: automated observation with no human augmentation;
there may or may not be significant weather present at this time
KGIF 171253Z AUTO 03008KT 10SM CLR 16/12 A3012 RMK AO2 SLP196 T01610117

Conditions at: KGIF observed 17 November 2017  11:53 UTC
Temperature: 14.4°C (58°F)
Dewpoint: 11.7°C (53°F) [RH = 84%]
Pressure (altimeter): 30.10 inches Hg (1019.4 mb)
[Sea-level pressure: 1019.2 mb]
Winds: from the NNE (20 degrees) at 9 MPH (8 knots; 4.2 m/s)
Visibility: 10 or more miles (16+ km)
Ceiling: at least 12,000 feet AGL
Clouds: scattered clouds at 4300 feet AGL
Present Weather: automated observation with no human augmentation;
there may or may not be significant weather present at this time
KGIF 171153Z AUTO 02008KT 10SM SCT043 14/12 A3010 RMK AO2 SLP192 T01440117 10150 20139 53009

Conditions at: KGIF observed 17 November 2017  10:53 UTC
Temperature: 14.4°C (58°F)
Dewpoint: 11.1°C (52°F) [RH = 81%]
Pressure (altimeter): 30.09 inches Hg (1019.0 mb)
[Sea-level pressure: 1018.7 mb]
Winds: from the N (10 degrees) at 8 MPH (7 knots; 3.6 m/s)
Visibility: 10 or more miles (16+ km)
Ceiling: at least 12,000 feet AGL
Clouds: sky clear below 12,000 feet AGL
Present Weather: automated observation with no human augmentation;
there may or may not be significant weather present at this time
KGIF 171053Z AUTO 01007KT 10SM CLR 14/11 A3009 RMK AO2 SLP187 T01440111

Conditions at: KGIF observed 17 November 2017  09:53 UTC
Temperature: 15.0°C (59°F)
Dewpoint: 11.1°C (52°F) [RH = 77%]
Pressure (altimeter): 30.08 inches Hg (1018.7 mb)
[Sea-level pressure: 1018.4 mb]
Winds: from the N (10 degrees) at 8 MPH (7 knots; 3.6 m/s)
Visibility: 10 or more miles (16+ km)
Ceiling: at least 12,000 feet AGL
Clouds: sky clear below 12,000 feet AGL
Present Weather: automated observation with no human augmentation;
there may or may not be significant weather present at this time
KGIF 170953Z AUTO 01007KT 10SM CLR 15/11 A3008 RMK AO2 SLP184 T01500111

Conditions at: KGIF observed 17 November 2017  08:53 UTC
Temperature: 14.4°C (58°F)
Dewpoint: 11.7°C (53°F) [RH = 84%]
Pressure (altimeter): 30.08 inches Hg (1018.7 mb)
[Sea-level pressure: 1018.2 mb]
Winds: from the NNE (20 degrees) at 7 MPH (6 knots; 3.1 m/s)
Visibility: 10 or more miles (16+ km)
Ceiling: at least 12,000 feet AGL
Clouds: sky clear below 12,000 feet AGL
Present Weather: automated observation with no human augmentation;
there may or may not be significant weather present at this time
KGIF 170853Z AUTO 02006KT 10SM CLR 14/12 A3008 RMK AO2 SLP182 T01440117 56004

Conditions at: KGIF observed 17 November 2017  07:53 UTC
Temperature: 14.4°C (58°F)
Dewpoint: 12.2°C (54°F) [RH = 87%]
Pressure (altimeter): 30.08 inches Hg (1018.7 mb)
[Sea-level pressure: 1018.3 mb]
Winds: from the NNE (30 degrees) at 5 MPH (4 knots; 2.1 m/s)
Visibility: 10 or more miles (16+ km)
Ceiling: at least 12,000 feet AGL
Clouds: sky clear below 12,000 feet AGL
Present Weather: automated observation with no human augmentation;
there may or may not be significant weather present at this time
KGIF 170753Z AUTO 03004KT 10SM CLR 14/12 A3008 RMK AO2 SLP183 T01440122

Conditions at: KGIF observed 17 November 2017  06:53 UTC
Temperature: 15.0°C (59°F)
Dewpoint: 12.8°C (55°F) [RH = 87%]
Pressure (altimeter): 30.08 inches Hg (1018.7 mb)
[Sea-level pressure: 1018.3 mb]
Winds: from the NNE (30 degrees) at 7 MPH (6 knots; 3.1 m/s)
Visibility: 10 or more miles (16+ km)
Ceiling: at least 12,000 feet AGL
Clouds: sky clear below 12,000 feet AGL
Present Weather: automated observation with no human augmentation;
there may or may not be significant weather present at this time
KGIF 170653Z AUTO 03006KT 10SM CLR 15/13 A3008 RMK AO2 SLP183 T01500128

Conditions at: KGIF observed 17 November 2017  05:53 UTC
Temperature: 15.0°C (59°F)
Dewpoint: 12.2°C (54°F) [RH = 83%]
Pressure (altimeter): 30.09 inches Hg (1019.0 mb)
[Sea-level pressure: 1018.6 mb]
Winds: from the NNE (30 degrees) at 6 MPH (5 knots; 2.6 m/s)
Visibility: 10 or more miles (16+ km)
Ceiling: at least 12,000 feet AGL
Clouds: sky clear below 12,000 feet AGL
Present Weather: automated observation with no human augmentation;
there may or may not be significant weather present at this time
KGIF 170553Z AUTO 03005KT 10SM CLR 15/12 A3009 RMK AO2 SLP186 T01500122 10211 20150 58002

Conditions at: KGIF observed 17 November 2017  04:53 UTC
Temperature: 15.6°C (60°F)
Dewpoint: 11.7°C (53°F) [RH = 78%]
Pressure (altimeter): 30.09 inches Hg (1019.0 mb)
[Sea-level pressure: 1018.8 mb]
Winds: from the NE (40 degrees) at 5 MPH (4 knots; 2.1 m/s)
Visibility: 10 or more miles (16+ km)
Ceiling: at least 12,000 feet AGL
Clouds: sky clear below 12,000 feet AGL
Present Weather: automated observation with no human augmentation;
there may or may not be significant weather present at this time
KGIF 170453Z AUTO 04004KT 10SM CLR 16/12 A3009 RMK AO2 SLP188 T01560117 402500150

Conditions at: KGIF observed 17 November 2017  03:53 UTC
Temperature: 16.7°C (62°F)
Dewpoint: 11.7°C (53°F) [RH = 72%]
Pressure (altimeter): 30.09 inches Hg (1019.0 mb)
[Sea-level pressure: 1018.7 mb]
Winds: from the NE (50 degrees) at 7 MPH (6 knots; 3.1 m/s)
Visibility: 10 or more miles (16+ km)
Ceiling: at least 12,000 feet AGL
Clouds: sky clear below 12,000 feet AGL
Present Weather: automated observation with no human augmentation;
there may or may not be significant weather present at this time
KGIF 170353Z AUTO 05006KT 10SM CLR 17/12 A3009 RMK AO2 SLP187 T01670117

Conditions at: KGIF observed 17 November 2017  02:53 UTC
Temperature: 17.2°C (63°F)
Dewpoint: 12.2°C (54°F) [RH = 72%]
Pressure (altimeter): 30.09 inches Hg (1019.0 mb)
[Sea-level pressure: 1018.8 mb]
Winds: from the NE (50 degrees) at 7 MPH (6 knots; 3.1 m/s)
Visibility: 10 or more miles (16+ km)
Ceiling: at least 12,000 feet AGL
Clouds: sky clear below 12,000 feet AGL
Present Weather: automated observation with no human augmentation;
there may or may not be significant weather present at this time
KGIF 170253Z AUTO 05006KT 10SM CLR 17/12 A3009 RMK AO2 SLP188 T01720122 53015

Conditions at: KGIF observed 17 November 2017  01:53 UTC
Temperature: 18.9°C (66°F)
Dewpoint: 12.8°C (55°F) [RH = 68%]
Pressure (altimeter): 30.08 inches Hg (1018.7 mb)
[Sea-level pressure: 1018.4 mb]
Winds: from the NE (50 degrees) at 6 MPH (5 knots; 2.6 m/s)
Visibility: 10 or more miles (16+ km)
Ceiling: at least 12,000 feet AGL
Clouds: few clouds at 4400 feet AGL
scattered clouds at 7000 feet AGL
Present Weather: automated observation with no human augmentation;
there may or may not be significant weather present at this time
KGIF 170153Z AUTO 05005KT 10SM FEW044 SCT070 19/13 A3008 RMK AO2 SLP184 T01890128

Conditions at: KGIF observed 17 November 2017  00:53 UTC
Temperature: 20.6°C (69°F)
Dewpoint: 13.9°C (57°F) [RH = 65%]
Pressure (altimeter): 30.06 inches Hg (1018.0 mb)
[Sea-level pressure: 1017.8 mb]
Winds: from the ENE (60 degrees) at 9 MPH (8 knots; 4.2 m/s)
Visibility: 10 or more miles (16+ km)
Ceiling: 4400 feet AGL
Clouds: overcast cloud deck at 4400 feet AGL
Present Weather: automated observation with no human augmentation;
there may or may not be significant weather present at this time
KGIF 170053Z AUTO 06008KT 10SM OVC044 21/14 A3006 RMK AO2 SLP178 T02060139

Conditions at: KGIF observed 16 November 2017  23:53 UTC
Temperature: 21.1°C (70°F)
Dewpoint: 13.3°C (56°F) [RH = 61%]
Pressure (altimeter): 30.05 inches Hg (1017.7 mb)
[Sea-level pressure: 1017.4 mb]
Winds: from the NNE (20 degrees) at 6 MPH (5 knots; 2.6 m/s)
Visibility: 10 or more miles (16+ km)
Ceiling: 4300 feet AGL
Clouds: overcast cloud deck at 4300 feet AGL
Present Weather: automated observation with no human augmentation;
there may or may not be significant weather present at this time
KGIF 162353Z AUTO 02005KT 10SM OVC043 21/13 A3005 RMK AO2 SLP174 T02110133 10250 20206 53015

Conditions at: KGIF observed 16 November 2017  22:53 UTC
Temperature: 21.7°C (71°F)
Dewpoint: 13.3°C (56°F) [RH = 59%]
Pressure (altimeter): 30.03 inches Hg (1017.0 mb)
[Sea-level pressure: 1016.7 mb]
Winds: from the N (10 degrees) at 7 MPH (6 knots; 3.1 m/s)
Visibility: 10 or more miles (16+ km)
Ceiling: 4400 feet AGL
Clouds: overcast cloud deck at 4400 feet AGL
Present Weather: automated observation with no human augmentation;
there may or may not be significant weather present at this time
KGIF 162253Z AUTO 01006KT 10SM OVC044 22/13 A3003 RMK AO2 SLP167 T02170133

Conditions at: KGIF observed 16 November 2017  21:53 UTC
Temperature: 20.6°C (69°F)
Dewpoint: 13.3°C (56°F) [RH = 63%]
Pressure (altimeter): 30.01 inches Hg (1016.3 mb)
[Sea-level pressure: 1016.2 mb]
Winds: from the N (350 degrees) at 8 MPH (7 knots; 3.6 m/s)
Visibility: 10 or more miles (16+ km)
Ceiling: at least 12,000 feet AGL
Clouds: scattered clouds at 4600 feet AGL
Present Weather: automated observation with no human augmentation;
there may or may not be significant weather present at this time
KGIF 162153Z AUTO 35007KT 10SM SCT046 21/13 A3001 RMK AO2 SLP162 T02060133

Conditions at: KGIF observed 16 November 2017  20:53 UTC
Temperature: 23.9°C (75°F)
Dewpoint: 13.9°C (57°F) [RH = 54%]
Pressure (altimeter): 30.00 inches Hg (1016.0 mb)
[Sea-level pressure: 1015.8 mb]
Winds: from the NNE (20 degrees) at 10 MPH (9 knots; 4.7 m/s)
Visibility: 10 or more miles (16+ km)
Ceiling: at least 12,000 feet AGL
Clouds: sky clear below 12,000 feet AGL
Present Weather: automated observation with no human augmentation;
there may or may not be significant weather present at this time
KGIF 162053Z AUTO 02009KT 10SM CLR 24/14 A3000 RMK AO2 SLP158 T02390139 55006

Conditions at: KGIF observed 16 November 2017  19:53 UTC
Temperature: 25.0°C (77°F)
Dewpoint: 13.9°C (57°F) [RH = 50%]
Pressure (altimeter): 30.00 inches Hg (1016.0 mb)
[Sea-level pressure: 1015.6 mb]
Winds: from the NNE (20 degrees) at 8 MPH (7 knots; 3.6 m/s)
Visibility: 10 or more miles (16+ km)
Ceiling: at least 12,000 feet AGL
Clouds: sky clear below 12,000 feet AGL
Present Weather: automated observation with no human augmentation;
there may or may not be significant weather present at this time
KGIF 161953Z AUTO 02007KT 10SM CLR 25/14 A3000 RMK AO2 SLP156 T02500139

Conditions at: KGIF observed 16 November 2017  18:53 UTC
Temperature: 24.4°C (76°F)
Dewpoint: 14.4°C (58°F) [RH = 54%]
Pressure (altimeter): 30.01 inches Hg (1016.3 mb)
[Sea-level pressure: 1015.9 mb]
Winds: from the N (360 degrees) at 8 MPH (7 knots; 3.6 m/s)
Visibility: 10 or more miles (16+ km)
Ceiling: at least 12,000 feet AGL
Clouds: few clouds at 3600 feet AGL
Present Weather: automated observation with no human augmentation;
there may or may not be significant weather present at this time
KGIF 161853Z AUTO 36007KT 10SM FEW036 24/14 A3001 RMK AO2 SLP159 T02440144

Conditions at: KGIF observed 16 November 2017  17:53 UTC
Temperature: 23.9°C (75°F)
Dewpoint: 14.4°C (58°F) [RH = 55%]
Pressure (altimeter): 30.02 inches Hg (1016.7 mb)
[Sea-level pressure: 1016.3 mb]
Winds: from the N (350 degrees) at 8 MPH (7 knots; 3.6 m/s)
Visibility: 10 or more miles (16+ km)
Ceiling: at least 12,000 feet AGL
Clouds: few clouds at 3100 feet AGL
Present Weather: automated observation with no human augmentation;
there may or may not be significant weather present at this time
KGIF 161753Z AUTO 35007KT 10SM FEW031 24/14 A3002 RMK AO2 SLP163 T02390144 10239 20150 58020